Terminal Aerodrome Forecast
Issued by NWS

Home | Current Version | Previous Version | Text Only | Print | Product List | Glossary On
Versions: 1 2 3 4 5 6 7 8 9 10 11 12 13 14 15
399
FTUS41 KGYX 161327 AAA
TAFLEB
TAF AMD
KLEB 161327Z 1613/1712 32003KT P6SM SCT050
     FM161600 33007G15KT P6SM SCT250
     FM170000 00000KT P6SM SKC
     FM170400 00000KT 1SM BR SKC
     FM171100 00000KT P6SM FEW001=

USA.gov is the U.S. government's official web portal to all federal, state and local government web resources and services.